Thursday, November 27, 2014
01:40 UTC
  |  Log In   |  Register Free
Airport Search:

Talladega Municipal Airport
(KASN)

Talladega Municipal Airport Diagram
No Airport Diagram Available

FAA data valid effective November 13, 2014 - January 08, 2015 (unless otherwise noted).

 
 
 
 
 
 
 
 
 
 
 
 
 
 

Current Aviation Weather for Talladega Municipal Airport (KASN)

The most recent METAR observation for KASN was updated at: 0115
METAR Summary (Translated METAR)
KASN
270055Z AUTO 18004KT 10SM SCT090 09/00 A3007 RMK AO2 T00900001
KANB
270053Z AUTO 00000KT 10SM BKN090 07/01 A3007 RMK AO2 SLP191 T00720006
(9.7 nm NE from KASN)
KGAD
270055Z 21003KT 10SM BKN070 BKN090 11/M02 A3005 RMK AO1
(24.3 nm NW from KASN)
TAF Summary (Translated TAF)
KASN
(9.7 nm SW from KANB)
221726Z 2218/2318 02006KT P6SM SKC FM230000 00000KT P6SM SKC
KANB
261738Z 2618/2718 27004KT P6SM SKC FM262130 21007KT P6SM BKN150 FM270300 19006KT P6SM BKN070 FM270700 25008KT P6SM BKN060 FM271400 32010G20KT P6SM BKN025
  Airport Weather Conditions for KASN

 Current Weather at ASN
48° F
Partly Cloudy
South winds at 4.6 mph
ASN NOAA Radar

Pressure: 30.07 in
Humidity: 54%
Wind: South at 4.6 MPH (4 KT)
Dew Point: 32.2°F
Visibility: 10.00 mi


Airport Weather Forecast for KASN

Translated METAR and TAF for KANB
Translated METAR for KANB (0135 UTC 27 November 2014)
found at http://aviationweather.gov/adds/metars/
 
METAR text: KANB 270053Z AUTO 00000KT 10SM BKN090 07/01 A3007 RMK AO2 SLP191 T00720006
Conditions at: KANB (ANNISTON , AL, US) observed 0053 UTC 27 November 2014
Temperature: 7.2°C (45°F)
Dewpoint: 0.6°C (33°F) [RH = 63%]
Pressure (altimeter): 30.07 inches Hg (1018.4 mb)
[Sea-level pressure: 1019.1 mb]
Winds: calm
Visibility: 10 or more miles (16+ km)
Ceiling: 9000 feet AGL
Clouds: broken clouds at 9000 feet AGL
Weather: automated observation with no human augmentation;
there may or may not be significant weather present at this time
Translated TAF for KANB
Forecast for: KANB (ANNISTON , AL, US)
TAF Text: KANB 262326Z 2700/2724 15006KT P6SM BKN120
Forecast period: 0000 to 0400 UTC 27 November 2014
Forecast type: FROM: standard forecast or significant change
Winds: from the SSE (150 degrees) at 7 MPH (6 knots; 3.1 m/s)
Visibility: 6 or more miles (10+ km)
Ceiling: 12000 feet AGL
Clouds: broken clouds at 12000 feet AGL
Weather: no significant weather forecast for this period
TAF Text: FM270400 23007KT P6SM SCT100
Forecast period: 0400 to 0700 UTC 27 November 2014
Forecast type: FROM: standard forecast or significant change
Winds: from the SW (230 degrees) at 8 MPH (7 knots; 3.6 m/s)
Visibility: 6 or more miles (10+ km)
Clouds: scattered clouds at 10000 feet AGL
Weather: no significant weather forecast for this period
TAF Text: FM270700 26008G18KT P6SM SCT100
Forecast period: 0700 to 1400 UTC 27 November 2014
Forecast type: FROM: standard forecast or significant change
Winds: from the W (260 degrees) at 9 MPH (8 knots; 4.2 m/s)
gusting to 21 MPH (18 knots; 9.4 m/s)
Visibility: 6 or more miles (10+ km)
Clouds: scattered clouds at 10000 feet AGL
Weather: no significant weather forecast for this period
TAF Text: FM271400 30010G18KT P6SM BKN035
Forecast period: 1400 UTC 27 November 2014 to 0000 UTC 28 November 2014
Forecast type: FROM: standard forecast or significant change
Winds: from the WNW (300 degrees) at 12 MPH (10 knots; 5.2 m/s)
gusting to 21 MPH (18 knots; 9.4 m/s)
Visibility: 6 or more miles (10+ km)
Ceiling: 3500 feet AGL
Clouds: broken clouds at 3500 feet AGL
Weather: no significant weather forecast for this period

Find All Airport Services Find A Hotel Find A Rental Car Find A Golf Course Find A Restaurant $100 Hamburger



FBO's on the Field
FBO Company Facility Photos Services Transportation Aviation Fuel Prices: Prices include tax
Catering Weather Repair Courtesy Rental Type 100LL JetA JetA+ MOGAS 8087
 
Talladega Municipal

This FBO has not yet been rated
FS:Phillips 66
Last Updated: Nov-14
Login to update fuel prices
SS:
Contact Talladega MunicipalMore FBO Information
 
Add another FBO Facility Photos Catering Weather Repair Courtesy Rental Type 100LL JetA JetA+ MOGAS 8087
Services Transportation Aviation Fuel Prices: Prices include tax


model-print
model-print
model-print
model-print